logo
Rechercher aéroport 
image banner adimage banner adimage banner ad
image banner ad

LZPP - Piestany

Situé à Piestany, Slovakia

ICAO - LZPP, IATA - PZY

Données fournies par Airmate  

Information générale

Coordonnées: N48°37'30" E17°49'43"
Élévation : 544 feet MSL.
Variation magnétique : 5.0356° East
Voir autres Aéroports à Trnava

Données opérationnelles

Special qualification required
Heure actuelle UTC:
Heure actuelle locale:
Météo
METAR: LZPP 230000Z AUTO 01002KT 0500 R01/P2000D FEW002/// 11/11 Q1012
TAF: TAF LZPP 221715Z 2218/2303 30005KT 9999 SCT030
Voir NOTAMs / SUP AIP / TFR affectant cet aéroport [VIEW]
Fréquences de communication: [VIEW]

Pistes:

Identifiant RWYQFULongueur (ft)Largeur (ft)SurfaceLDA (ft)
0114°656298CONC+ASPH6562
19194°656298CONC+ASPH6562

Coordonnées de l'aéroport

Adresse: Piestany Slovakia

Autres services d'aviation

Écoles de pilotage

Utair Europe

Utair Europe

Vue satellite de LZPP